createdAt,value
2023-01-15T00:00:28.353Z,60
2023-01-15T00:01:35.651Z,60
2023-01-15T00:02:42.580Z,60
2023-01-15T00:03:49.773Z,60
2023-01-15T00:04:56.664Z,59
2023-01-15T00:06:04.029Z,60
2023-01-15T00:07:11.065Z,60
2023-01-15T00:08:18.487Z,60
2023-01-15T00:09:25.860Z,59
2023-01-15T00:10:33.034Z,60
2023-01-15T00:11:40.155Z,60
2023-01-15T00:12:47.355Z,60
2023-01-15T00:13:54.539Z,60
2023-01-15T00:15:01.566Z,60
2023-01-15T00:16:08.747Z,60
2023-01-15T00:17:15.826Z,60
2023-01-15T00:18:23.002Z,60
2023-01-15T00:19:31.284Z,60
2023-01-15T00:20:38.398Z,60
2023-01-15T00:21:45.547Z,60
2023-01-15T00:22:52.526Z,60
2023-01-15T00:23:59.674Z,60
2023-01-15T00:25:11.932Z,60
2023-01-15T00:26:24.220Z,60
2023-01-15T00:27:37.353Z,60
2023-01-15T00:28:44.591Z,60
2023-01-15T00:29:51.795Z,60
2023-01-15T00:30:58.773Z,60
2023-01-15T00:32:05.879Z,60
2023-01-15T00:33:13.024Z,59
2023-01-15T00:34:20.154Z,59
2023-01-15T00:35:27.388Z,59
2023-01-15T00:36:34.476Z,59
2023-01-15T00:37:41.688Z,59
2023-01-15T00:38:48.805Z,59
2023-01-15T00:39:56.389Z,59
2023-01-15T00:41:03.524Z,59
2023-01-15T00:42:10.872Z,59
2023-01-15T00:43:18.280Z,59
2023-01-15T00:44:25.403Z,59
2023-01-15T00:45:32.546Z,59
2023-01-15T00:46:39.810Z,59
2023-01-15T00:47:47.029Z,60
2023-01-15T00:48:54.440Z,59
2023-01-15T00:50:01.552Z,60
2023-01-15T00:51:08.655Z,59
2023-01-15T00:52:15.828Z,60
2023-01-15T00:53:23.031Z,59
2023-01-15T00:54:30.262Z,59
2023-01-15T00:55:37.331Z,59
2023-01-15T00:56:44.495Z,59
2023-01-15T00:57:51.837Z,59
2023-01-15T00:58:58.642Z,59
2023-01-15T01:00:05.946Z,59
2023-01-15T01:01:13.601Z,59
2023-01-15T01:02:20.633Z,59
2023-01-15T01:03:27.740Z,59
2023-01-15T01:04:34.900Z,59
2023-01-15T01:05:42.106Z,59
2023-01-15T01:06:49.236Z,59
2023-01-15T01:07:56.289Z,59
2023-01-15T01:09:03.435Z,59
2023-01-15T01:10:11.364Z,59
2023-01-15T01:11:18.686Z,59
2023-01-15T01:12:26.286Z,59
2023-01-15T01:13:34.661Z,59
2023-01-15T01:14:41.783Z,59
2023-01-15T01:15:48.934Z,59
2023-01-15T01:16:55.907Z,59
2023-01-15T01:18:03.086Z,59
2023-01-15T01:19:10.269Z,59
2023-01-15T01:20:17.511Z,59
2023-01-15T01:21:24.601Z,59
2023-01-15T01:22:33.684Z,59
2023-01-15T01:23:41.352Z,59
2023-01-15T01:24:48.640Z,59
2023-01-15T01:25:55.564Z,59
2023-01-15T01:27:02.736Z,58
2023-01-15T01:28:10.165Z,59
2023-01-15T01:29:17.093Z,59
2023-01-15T01:30:24.150Z,59
2023-01-15T01:31:31.404Z,59
2023-01-15T01:32:38.455Z,59
2023-01-15T01:33:48.670Z,59
2023-01-15T01:34:55.636Z,59
2023-01-15T01:36:02.855Z,59
2023-01-15T01:37:09.973Z,59
2023-01-15T01:38:17.116Z,59
2023-01-15T01:39:24.221Z,59
2023-01-15T01:40:31.437Z,59
2023-01-15T01:41:38.570Z,59
2023-01-15T01:42:45.777Z,59
2023-01-15T01:43:52.998Z,59
2023-01-15T01:45:07.991Z,59
2023-01-15T01:46:20.789Z,59
2023-01-15T01:47:27.960Z,59
2023-01-15T01:48:35.195Z,59
2023-01-15T01:49:42.406Z,59
2023-01-15T01:50:49.345Z,59
2023-01-15T01:51:56.301Z,59
2023-01-15T01:53:03.505Z,59
2023-01-15T01:54:10.664Z,59
2023-01-15T01:55:17.852Z,59
2023-01-15T01:56:24.973Z,59
2023-01-15T01:57:32.132Z,59
2023-01-15T01:58:39.541Z,59
2023-01-15T01:59:46.426Z,59
2023-01-15T02:00:53.491Z,59
2023-01-15T02:02:00.777Z,59
2023-01-15T02:03:07.785Z,59
2023-01-15T02:04:15.865Z,59
2023-01-15T02:05:23.117Z,59
2023-01-15T02:06:33.360Z,59
2023-01-15T02:07:40.529Z,59
2023-01-15T02:08:47.620Z,59
2023-01-15T02:09:54.616Z,59
2023-01-15T02:11:01.797Z,59
2023-01-15T02:12:09.197Z,59
2023-01-15T02:13:26.313Z,59
2023-01-15T02:14:38.626Z,59
2023-01-15T02:15:56.280Z,59
2023-01-15T02:17:11.588Z,59
2023-01-15T02:18:21.737Z,59
2023-01-15T02:19:31.505Z,59
2023-01-15T02:20:43.752Z,59
2023-01-15T02:22:01.020Z,58
2023-01-15T02:23:08.113Z,58
2023-01-15T02:24:23.431Z,59
2023-01-15T02:25:35.689Z,58
2023-01-15T02:26:53.027Z,58
2023-01-15T02:28:05.157Z,58
2023-01-15T02:29:14.889Z,58
2023-01-15T02:30:22.017Z,58
2023-01-15T02:31:29.153Z,58
2023-01-15T02:32:41.469Z,58
2023-01-15T02:33:53.654Z,57
2023-01-15T02:35:03.220Z,58
2023-01-15T02:36:18.144Z,58
2023-01-15T02:37:25.269Z,58
2023-01-15T02:38:32.307Z,58
2023-01-15T02:39:39.503Z,58
2023-01-15T02:40:46.682Z,57
2023-01-15T02:41:53.858Z,58
2023-01-15T02:43:00.940Z,57
2023-01-15T02:44:08.080Z,57
2023-01-15T02:45:15.129Z,58
2023-01-15T02:46:22.356Z,57
2023-01-15T02:47:29.420Z,57
2023-01-15T02:48:36.556Z,57
2023-01-15T02:49:43.858Z,57
2023-01-15T02:50:51.004Z,57
2023-01-15T02:52:01.005Z,57
2023-01-15T02:53:10.696Z,57
2023-01-15T02:54:17.844Z,57
2023-01-15T02:55:25.058Z,57
2023-01-15T02:56:32.165Z,57
2023-01-15T02:57:41.911Z,58
2023-01-15T02:58:49.104Z,57
2023-01-15T02:59:56.080Z,58
2023-01-15T03:01:03.293Z,58
2023-01-15T03:02:13.561Z,58
2023-01-15T03:03:23.184Z,58
2023-01-15T03:04:30.245Z,58
2023-01-15T03:05:45.525Z,58
2023-01-15T03:06:52.961Z,58
2023-01-15T03:08:02.895Z,58
2023-01-15T03:09:10.152Z,58
2023-01-15T03:10:17.120Z,58
2023-01-15T03:11:24.236Z,59
2023-01-15T03:12:31.384Z,59
2023-01-15T03:13:41.628Z,59
2023-01-15T03:14:53.856Z,59
2023-01-15T03:16:11.113Z,59
2023-01-15T03:17:25.846Z,59
2023-01-15T03:18:38.092Z,59
2023-01-15T03:19:50.896Z,60
2023-01-15T03:20:58.898Z,60
2023-01-15T03:22:05.013Z,61
2023-01-15T03:23:20.390Z,61
2023-01-15T03:24:27.537Z,62
2023-01-15T03:25:37.213Z,62
2023-01-15T03:26:44.340Z,62
2023-01-15T03:27:51.536Z,63
2023-01-15T03:28:58.451Z,64
2023-01-15T03:30:05.557Z,64
2023-01-15T03:31:17.908Z,65
2023-01-15T03:32:25.056Z,65
2023-01-15T03:33:32.272Z,66
2023-01-15T03:34:39.421Z,66
2023-01-15T03:35:49.546Z,65
2023-01-15T03:36:59.668Z,66
2023-01-15T03:38:06.791Z,65
2023-01-15T03:39:13.903Z,66
2023-01-15T03:40:21.020Z,66
2023-01-15T03:41:28.184Z,66
2023-01-15T03:42:43.483Z,66
2023-01-15T03:43:53.814Z,65
2023-01-15T03:45:06.393Z,65
2023-01-15T03:46:16.149Z,65
2023-01-15T03:47:31.377Z,66
2023-01-15T03:48:43.659Z,66
2023-01-15T03:49:50.713Z,66
2023-01-15T03:51:00.820Z,66
2023-01-15T03:52:16.132Z,67
2023-01-15T03:53:33.387Z,67
2023-01-15T03:54:49.027Z,67
2023-01-15T03:55:56.216Z,67
2023-01-15T03:57:03.388Z,67
2023-01-15T03:58:13.620Z,67
2023-01-15T03:59:23.324Z,67
2023-01-15T04:00:30.453Z,67
2023-01-15T04:01:37.915Z,66
2023-01-15T04:02:44.893Z,67
2023-01-15T04:03:52.004Z,66
2023-01-15T04:04:58.904Z,66
2023-01-15T04:06:06.112Z,67
2023-01-15T04:07:13.236Z,66
2023-01-15T04:08:20.434Z,66
2023-01-15T04:09:27.540Z,66
2023-01-15T04:10:35.117Z,66
2023-01-15T04:11:41.896Z,67
2023-01-15T04:12:49.109Z,67
2023-01-15T04:13:56.008Z,66
2023-01-15T04:15:03.237Z,66
2023-01-15T04:16:10.885Z,66
2023-01-15T04:17:18.085Z,66
2023-01-15T04:18:25.224Z,66
2023-01-15T04:19:32.330Z,66
2023-01-15T04:20:39.557Z,66
2023-01-15T04:21:46.718Z,66
2023-01-15T04:22:53.859Z,66
2023-01-15T04:24:00.991Z,65
2023-01-15T04:25:08.547Z,65
2023-01-15T04:26:15.647Z,65
2023-01-15T04:27:22.788Z,65
2023-01-15T04:28:29.979Z,65
2023-01-15T04:29:37.169Z,65
2023-01-15T04:30:44.304Z,65
2023-01-15T04:31:51.455Z,66
2023-01-15T04:32:58.386Z,65
2023-01-15T04:34:05.491Z,65
2023-01-15T04:35:12.795Z,65
2023-01-15T04:36:20.069Z,65
2023-01-15T04:37:26.981Z,65
2023-01-15T04:38:34.148Z,66
2023-01-15T04:39:41.289Z,66
2023-01-15T04:40:48.516Z,66
2023-01-15T04:42:00.551Z,66
2023-01-15T04:43:15.895Z,66
2023-01-15T04:44:28.227Z,66
2023-01-15T04:45:35.516Z,66
2023-01-15T04:46:42.530Z,66
2023-01-15T04:47:49.612Z,65
2023-01-15T04:48:56.653Z,65
2023-01-15T04:50:03.764Z,66
2023-01-15T04:51:11.084Z,65
2023-01-15T04:52:18.096Z,65
2023-01-15T04:53:25.196Z,65
2023-01-15T04:54:32.336Z,65
2023-01-15T04:55:39.525Z,65
2023-01-15T04:56:46.698Z,65
2023-01-15T04:57:56.697Z,65
2023-01-15T04:59:03.906Z,65
2023-01-15T05:00:11.029Z,65
2023-01-15T05:01:18.178Z,65
2023-01-15T05:02:25.430Z,65
2023-01-15T05:03:32.436Z,65
2023-01-15T05:04:39.760Z,65
2023-01-15T05:05:46.847Z,65
2023-01-15T05:06:53.967Z,65
2023-01-15T05:08:00.892Z,65
2023-01-15T05:09:08.052Z,64
2023-01-15T05:10:15.239Z,64
2023-01-15T05:11:22.449Z,64
2023-01-15T05:12:29.683Z,64
2023-01-15T05:13:36.651Z,63
2023-01-15T05:14:43.840Z,64
2023-01-15T05:15:51.023Z,64
2023-01-15T05:16:57.996Z,63
2023-01-15T05:18:05.256Z,64
2023-01-15T05:19:12.322Z,64
2023-01-15T05:20:19.419Z,63
2023-01-15T05:21:26.530Z,64
2023-01-15T05:22:33.736Z,63
2023-01-15T05:23:40.910Z,63
2023-01-15T05:24:48.094Z,63
2023-01-15T05:25:55.220Z,63
2023-01-15T05:27:02.152Z,63
2023-01-15T05:28:09.327Z,63
2023-01-15T05:29:16.445Z,64
2023-01-15T05:30:23.676Z,63
2023-01-15T05:31:30.840Z,63
2023-01-15T05:32:37.912Z,64
2023-01-15T05:33:45.076Z,63
2023-01-15T05:34:52.204Z,63
2023-01-15T05:35:59.263Z,63
2023-01-15T05:37:09.399Z,64
2023-01-15T05:38:16.600Z,64
2023-01-15T05:39:23.892Z,64
2023-01-15T05:40:30.893Z,64
2023-01-15T05:41:38.066Z,64
2023-01-15T05:42:50.436Z,64
2023-01-15T05:43:57.765Z,63
2023-01-15T05:45:04.959Z,63
2023-01-15T05:46:12.549Z,64
2023-01-15T05:47:19.731Z,63
2023-01-15T05:48:27.069Z,64
2023-01-15T05:49:34.132Z,64
2023-01-15T05:50:41.159Z,64
2023-01-15T05:51:48.348Z,64
2023-01-15T05:52:55.489Z,64
2023-01-15T05:54:02.457Z,64
2023-01-15T05:55:09.679Z,64
2023-01-15T05:56:16.773Z,64
2023-01-15T05:57:23.904Z,64
2023-01-15T05:58:31.068Z,64
2023-01-15T05:59:38.287Z,64
2023-01-15T06:00:45.358Z,64
2023-01-15T06:01:52.692Z,64
2023-01-15T06:03:00.088Z,64
2023-01-15T06:04:07.121Z,64
2023-01-15T06:05:14.328Z,64
2023-01-15T06:06:21.388Z,64
2023-01-15T06:07:28.572Z,63
2023-01-15T06:08:35.841Z,64
2023-01-15T06:09:42.932Z,64
2023-01-15T06:10:50.072Z,63
2023-01-15T06:11:57.129Z,64
2023-01-15T06:13:04.215Z,64
2023-01-15T06:14:11.372Z,64
2023-01-15T06:15:18.552Z,64
2023-01-15T06:16:25.696Z,64
2023-01-15T06:17:32.868Z,64
2023-01-15T06:18:40.001Z,64
2023-01-15T06:19:47.160Z,64
2023-01-15T06:20:54.228Z,64
2023-01-15T06:22:01.437Z,64
2023-01-15T06:23:08.322Z,64
2023-01-15T06:24:15.489Z,64
2023-01-15T06:25:22.601Z,64
2023-01-15T06:26:29.795Z,64
2023-01-15T06:27:36.963Z,64
2023-01-15T06:28:44.073Z,64
2023-01-15T06:29:51.229Z,64
2023-01-15T06:30:58.250Z,64
2023-01-15T06:32:05.345Z,64
2023-01-15T06:33:12.574Z,64
2023-01-15T06:34:19.698Z,64
2023-01-15T06:35:26.841Z,64
2023-01-15T06:36:33.915Z,64
2023-01-15T06:37:41.145Z,64
2023-01-15T06:38:48.245Z,64
2023-01-15T06:39:55.396Z,64
2023-01-15T06:41:02.593Z,64
2023-01-15T06:42:09.589Z,64
2023-01-15T06:43:21.829Z,64
2023-01-15T06:44:34.044Z,65
2023-01-15T06:45:46.228Z,64
2023-01-15T06:46:58.389Z,64
2023-01-15T06:48:15.734Z,64
2023-01-15T06:49:23.025Z,64
2023-01-15T06:50:30.058Z,64
2023-01-15T06:51:37.166Z,64
2023-01-15T06:52:44.280Z,64
2023-01-15T06:53:51.406Z,64
2023-01-15T06:54:58.456Z,64
2023-01-15T06:56:05.688Z,64
2023-01-15T06:57:12.976Z,64
2023-01-15T06:58:20.449Z,64
2023-01-15T06:59:27.566Z,64
2023-01-15T07:00:34.806Z,64
2023-01-15T07:01:41.893Z,63
2023-01-15T07:02:49.104Z,63
2023-01-15T07:03:56.363Z,63
2023-01-15T07:05:03.213Z,63
2023-01-15T07:06:10.280Z,63
2023-01-15T07:07:17.431Z,63
2023-01-15T07:08:24.633Z,63
2023-01-15T07:09:31.983Z,63
2023-01-15T07:10:38.881Z,63
2023-01-15T07:11:46.044Z,63
2023-01-15T07:12:53.280Z,63
2023-01-15T07:14:00.720Z,63
2023-01-15T07:15:10.400Z,63
2023-01-15T07:16:17.542Z,63
2023-01-15T07:17:29.752Z,63
2023-01-15T07:18:37.035Z,63
2023-01-15T07:19:44.147Z,63
2023-01-15T07:20:51.278Z,63
2023-01-15T07:21:58.169Z,63
2023-01-15T07:23:05.342Z,63
2023-01-15T07:24:12.521Z,63
2023-01-15T07:25:19.630Z,63
2023-01-15T07:26:27.104Z,63
2023-01-15T07:27:33.935Z,63
2023-01-15T07:28:41.073Z,63
2023-01-15T07:29:48.105Z,63
2023-01-15T07:30:55.293Z,63
2023-01-15T07:32:02.447Z,63
2023-01-15T07:33:09.537Z,63
2023-01-15T07:34:16.614Z,64
2023-01-15T07:35:23.771Z,64
2023-01-15T07:36:30.928Z,63
2023-01-15T07:37:38.088Z,64
2023-01-15T07:38:45.280Z,64
2023-01-15T07:39:52.625Z,63
2023-01-15T07:40:59.844Z,64
2023-01-15T07:42:12.308Z,63
2023-01-15T07:43:24.605Z,64
2023-01-15T07:44:36.579Z,63
2023-01-15T07:45:48.897Z,63
2023-01-15T07:47:00.987Z,63
2023-01-15T07:48:16.378Z,63
2023-01-15T07:49:28.536Z,63
2023-01-15T07:50:40.728Z,64
2023-01-15T07:51:47.990Z,64
2023-01-15T07:52:55.231Z,63
2023-01-15T07:54:02.265Z,64
2023-01-15T07:55:09.241Z,63
2023-01-15T07:56:16.384Z,63
2023-01-15T07:57:23.585Z,64
2023-01-15T07:58:30.725Z,63
2023-01-15T07:59:37.944Z,63
2023-01-15T08:00:45.236Z,63
2023-01-15T08:01:52.396Z,64
2023-01-15T08:02:59.152Z,63
2023-01-15T08:04:06.405Z,63
2023-01-15T08:05:16.558Z,63
2023-01-15T08:06:23.644Z,63
2023-01-15T08:07:30.828Z,63
2023-01-15T08:08:41.035Z,63
2023-01-15T08:09:48.240Z,63
2023-01-15T08:10:55.396Z,63
2023-01-15T08:12:08.027Z,63
2023-01-15T08:13:20.114Z,63
2023-01-15T08:14:32.413Z,63
2023-01-15T08:15:44.649Z,63
2023-01-15T08:16:51.743Z,63
2023-01-15T08:17:58.817Z,63
2023-01-15T08:19:05.972Z,62
2023-01-15T08:20:13.374Z,63
2023-01-15T08:21:20.176Z,63
2023-01-15T08:22:27.346Z,62
2023-01-15T08:23:34.504Z,62
2023-01-15T08:24:41.648Z,62
2023-01-15T08:25:49.028Z,62
2023-01-15T08:26:56.084Z,62
2023-01-15T08:28:03.420Z,62
2023-01-15T08:29:10.555Z,62
2023-01-15T08:30:17.722Z,62
2023-01-15T08:31:24.998Z,61
2023-01-15T08:32:32.276Z,62
2023-01-15T08:33:39.615Z,62
2023-01-15T08:34:46.444Z,62
2023-01-15T08:35:53.906Z,61
2023-01-15T08:37:01.133Z,61
2023-01-15T08:38:08.219Z,61
2023-01-15T08:39:15.516Z,61
2023-01-15T08:40:22.639Z,61
2023-01-15T08:41:29.674Z,61
2023-01-15T08:42:36.873Z,60
2023-01-15T08:43:43.975Z,60
2023-01-15T08:44:51.197Z,60
2023-01-15T08:45:58.534Z,60
2023-01-15T08:47:05.902Z,60
2023-01-15T08:48:12.938Z,60
2023-01-15T08:49:20.127Z,60
2023-01-15T08:50:27.243Z,59
2023-01-15T08:51:34.412Z,59
2023-01-15T08:52:41.784Z,59
2023-01-15T08:53:49.589Z,59
2023-01-15T08:54:56.892Z,59
2023-01-15T08:56:03.816Z,58
2023-01-15T08:57:15.935Z,58
2023-01-15T08:58:23.214Z,58
2023-01-15T08:59:33.327Z,58
2023-01-15T09:00:40.562Z,57
2023-01-15T09:01:47.909Z,57
2023-01-15T09:02:54.875Z,57
2023-01-15T09:04:01.849Z,57
2023-01-15T09:05:09.980Z,57
2023-01-15T09:06:17.132Z,57
2023-01-15T09:07:24.454Z,57
2023-01-15T09:08:31.439Z,57
2023-01-15T09:09:38.695Z,57
2023-01-15T09:10:45.770Z,56
2023-01-15T09:11:52.968Z,57
2023-01-15T09:12:59.822Z,57
2023-01-15T09:14:06.974Z,56
2023-01-15T09:15:14.175Z,56
2023-01-15T09:16:21.332Z,56
2023-01-15T09:17:28.662Z,56
2023-01-15T09:18:35.893Z,56
2023-01-15T09:19:42.772Z,56
2023-01-15T09:20:49.962Z,56
2023-01-15T09:21:57.050Z,56
2023-01-15T09:23:04.244Z,55
2023-01-15T09:24:11.225Z,56
2023-01-15T09:25:18.318Z,56
2023-01-15T09:26:25.434Z,56
2023-01-15T09:27:32.623Z,57
2023-01-15T09:28:39.774Z,56
2023-01-15T09:29:46.938Z,56
2023-01-15T09:30:54.153Z,57
2023-01-15T09:32:01.468Z,57
2023-01-15T09:33:08.618Z,59
2023-01-15T09:34:15.808Z,59
2023-01-15T09:35:22.970Z,59
2023-01-15T09:36:30.027Z,59
2023-01-15T09:37:37.256Z,60
2023-01-15T09:38:44.394Z,60
2023-01-15T09:39:51.551Z,60
2023-01-15T09:40:58.694Z,59
2023-01-15T09:42:05.631Z,59
2023-01-15T09:43:15.316Z,59
2023-01-15T09:44:27.528Z,59
2023-01-15T09:45:39.935Z,59
2023-01-15T09:46:46.942Z,60
2023-01-15T09:47:59.073Z,60
2023-01-15T09:49:11.355Z,60
2023-01-15T09:50:23.800Z,59
2023-01-15T09:51:39.502Z,60
2023-01-15T09:52:56.758Z,60
2023-01-15T09:54:11.906Z,60
2023-01-15T09:55:21.652Z,60
2023-01-15T09:56:28.781Z,60
2023-01-15T09:57:36.184Z,60
2023-01-15T09:58:43.332Z,61
2023-01-15T09:59:50.251Z,61
2023-01-15T10:00:57.477Z,61
2023-01-15T10:02:04.437Z,61
2023-01-15T10:03:16.693Z,61
2023-01-15T10:04:28.938Z,61
2023-01-15T10:05:41.186Z,60
2023-01-15T10:06:48.490Z,61
2023-01-15T10:07:55.463Z,61
2023-01-15T10:09:07.643Z,61
2023-01-15T10:10:17.427Z,61
2023-01-15T10:11:22.344Z,62
2023-01-15T10:12:32.616Z,62
2023-01-15T10:13:39.710Z,62
2023-01-15T10:14:52.481Z,63
2023-01-15T10:16:09.783Z,63
2023-01-15T10:17:17.103Z,64
2023-01-15T10:18:32.181Z,63
2023-01-15T10:19:44.543Z,64
2023-01-15T10:20:46.540Z,63
2023-01-15T10:21:58.702Z,64
2023-01-15T10:23:14.382Z,64
2023-01-15T10:24:31.716Z,64
2023-01-15T10:25:41.998Z,64
2023-01-15T10:26:54.144Z,65
2023-01-15T10:28:01.147Z,65
2023-01-15T10:29:10.870Z,65
2023-01-15T10:30:21.080Z,64
2023-01-15T10:31:36.357Z,65
2023-01-15T10:33:01.353Z,65
2023-01-15T10:33:58.887Z,66
2023-01-15T10:35:13.957Z,66
2023-01-15T10:36:31.326Z,67
2023-01-15T10:37:46.165Z,67
2023-01-15T10:39:03.802Z,66
2023-01-15T10:40:21.149Z,67
2023-01-15T10:41:38.630Z,66
2023-01-15T10:42:55.895Z,66
2023-01-15T10:44:13.658Z,66
2023-01-15T10:45:28.297Z,66
2023-01-15T10:46:38.066Z,65
2023-01-15T10:47:45.169Z,65
2023-01-15T10:48:52.453Z,65
2023-01-15T10:49:59.489Z,64
2023-01-15T10:51:06.419Z,64
2023-01-15T10:52:16.167Z,63
2023-01-15T10:53:26.282Z,63
2023-01-15T10:54:38.662Z,63
2023-01-15T10:55:45.722Z,63
2023-01-15T10:57:00.898Z,62
2023-01-15T10:58:11.334Z,63
2023-01-15T10:59:18.279Z,62
2023-01-15T11:00:38.613Z,61
2023-01-15T11:01:45.922Z,61
2023-01-15T11:02:55.938Z,61
2023-01-15T11:04:06.075Z,61
2023-01-15T11:05:16.321Z,61
2023-01-15T11:06:23.330Z,61
2023-01-15T11:07:30.485Z,61
2023-01-15T11:09:07.706Z,61
2023-01-15T11:09:54.987Z,61
2023-01-15T11:11:02.131Z,60
2023-01-15T11:12:17.461Z,61
2023-01-15T11:13:29.674Z,60
2023-01-15T11:14:41.942Z,60
2023-01-15T11:15:54.213Z,60
2023-01-15T11:17:06.362Z,60
2023-01-15T11:18:18.681Z,60
2023-01-15T11:19:30.685Z,60
2023-01-15T11:20:40.866Z,60
2023-01-15T11:21:48.008Z,60
2023-01-15T11:22:55.225Z,60
2023-01-15T11:24:02.269Z,60
2023-01-15T11:25:09.878Z,60
2023-01-15T11:26:16.988Z,60
2023-01-15T11:27:27.269Z,60
2023-01-15T11:28:34.443Z,60
2023-01-15T11:29:41.591Z,60
2023-01-15T11:30:48.708Z,60
2023-01-15T11:31:59.001Z,60
2023-01-15T11:33:06.070Z,60
2023-01-15T11:34:23.330Z,60
2023-01-15T11:35:30.418Z,60
2023-01-15T11:36:37.679Z,60
2023-01-15T11:37:44.979Z,60
2023-01-15T11:38:51.910Z,60
2023-01-15T11:39:59.043Z,61
2023-01-15T11:41:05.994Z,61
2023-01-15T11:42:23.483Z,61
2023-01-15T11:43:35.634Z,61
2023-01-15T11:44:47.818Z,61
2023-01-15T11:46:00.211Z,61
2023-01-15T11:47:19.868Z,61
2023-01-15T11:48:29.647Z,61
2023-01-15T11:49:46.995Z,61
2023-01-15T11:50:59.314Z,61
2023-01-15T11:52:12.321Z,61
2023-01-15T11:53:24.959Z,61
2023-01-15T11:54:32.178Z,61
2023-01-15T11:55:44.473Z,61
2023-01-15T11:56:56.732Z,61
2023-01-15T11:58:03.722Z,61
2023-01-15T11:59:10.770Z,61
2023-01-15T12:00:20.422Z,61
2023-01-15T12:01:32.840Z,61
2023-01-15T12:02:39.826Z,62
2023-01-15T12:03:49.624Z,62
2023-01-15T12:04:56.662Z,62
2023-01-15T12:06:03.773Z,61
2023-01-15T12:07:10.981Z,62
2023-01-15T12:08:18.063Z,62
2023-01-15T12:09:28.237Z,62
2023-01-15T12:10:38.474Z,62
2023-01-15T12:11:53.746Z,62
2023-01-15T12:13:08.415Z,62
2023-01-15T12:14:18.127Z,62
2023-01-15T12:15:35.498Z,62
2023-01-15T12:16:47.744Z,62
2023-01-15T12:18:04.987Z,63
2023-01-15T12:19:22.258Z,63
2023-01-15T12:20:39.686Z,63
2023-01-15T12:21:51.962Z,63
2023-01-15T12:23:08.930Z,63
2023-01-15T12:24:22.388Z,63
2023-01-15T12:25:34.572Z,63
2023-01-15T12:26:41.850Z,63
2023-01-15T12:27:51.511Z,64
2023-01-15T12:28:58.744Z,63
2023-01-15T12:30:08.729Z,63
2023-01-15T12:31:20.963Z,63
2023-01-15T12:32:27.981Z,63
2023-01-15T12:33:35.145Z,63
2023-01-15T12:34:42.337Z,63
2023-01-15T12:35:59.846Z,63
2023-01-15T12:37:07.159Z,64
2023-01-15T12:38:19.859Z,64
2023-01-15T12:39:32.169Z,64
2023-01-15T12:40:44.367Z,63
2023-01-15T12:41:51.639Z,63
2023-01-15T12:43:09.254Z,64
2023-01-15T12:44:21.467Z,64
2023-01-15T12:45:44.057Z,64
2023-01-15T12:46:51.041Z,64
2023-01-15T12:47:58.266Z,64
2023-01-15T12:49:15.876Z,64
2023-01-15T12:50:25.533Z,64
2023-01-15T12:51:32.723Z,64
2023-01-15T12:52:48.087Z,64
2023-01-15T12:53:55.159Z,64
2023-01-15T12:55:07.234Z,64
2023-01-15T12:56:19.501Z,64
2023-01-15T12:57:31.955Z,64
2023-01-15T12:58:38.911Z,64
2023-01-15T12:59:51.187Z,64
2023-01-15T13:00:58.555Z,65
2023-01-15T13:02:13.525Z,65
2023-01-15T13:03:20.698Z,65
2023-01-15T13:04:30.834Z,64
2023-01-15T13:05:37.983Z,64
2023-01-15T13:06:50.334Z,65
2023-01-15T13:07:57.275Z,65
2023-01-15T13:09:12.492Z,65
2023-01-15T13:10:22.239Z,65
2023-01-15T13:11:31.990Z,65
2023-01-15T13:12:39.034Z,64
2023-01-15T13:13:46.239Z,65
2023-01-15T13:14:53.494Z,65
2023-01-15T13:16:00.589Z,65
2023-01-15T13:17:10.599Z,65
2023-01-15T13:18:23.171Z,65
2023-01-15T13:19:30.037Z,65
2023-01-15T13:20:42.354Z,65
2023-01-15T13:21:52.162Z,65
2023-01-15T13:22:59.179Z,65
2023-01-15T13:24:11.812Z,65
2023-01-15T13:25:29.827Z,65
2023-01-15T13:26:36.260Z,65
2023-01-15T13:27:51.507Z,65
2023-01-15T13:29:06.786Z,65
2023-01-15T13:30:18.964Z,65
2023-01-15T13:31:31.407Z,65
2023-01-15T13:32:46.510Z,66
2023-01-15T13:33:53.741Z,65
2023-01-15T13:35:00.912Z,65
2023-01-15T13:36:16.503Z,66
2023-01-15T13:37:28.751Z,66
2023-01-15T13:38:39.635Z,66
2023-01-15T13:39:47.531Z,66
2023-01-15T13:40:55.069Z,66
2023-01-15T13:42:02.406Z,66
2023-01-15T13:43:14.741Z,65
2023-01-15T13:44:26.853Z,66
2023-01-15T13:45:34.026Z,66
2023-01-15T13:46:46.271Z,66
2023-01-15T13:48:03.455Z,66
2023-01-15T13:49:16.211Z,66
2023-01-15T13:50:26.401Z,66
2023-01-15T13:51:38.941Z,66
2023-01-15T13:52:45.799Z,66
2023-01-15T13:53:53.206Z,67
2023-01-15T13:55:00.214Z,67
2023-01-15T13:56:17.361Z,66
2023-01-15T13:57:29.822Z,67
2023-01-15T13:58:39.764Z,67
2023-01-15T13:59:55.152Z,66
2023-01-15T14:01:02.232Z,66
2023-01-15T14:02:11.728Z,66
2023-01-15T14:03:27.079Z,66
2023-01-15T14:04:34.278Z,67
2023-01-15T14:05:41.455Z,67
2023-01-15T14:06:48.526Z,67
2023-01-15T14:07:55.730Z,67
2023-01-15T14:09:02.643Z,67
2023-01-15T14:10:10.899Z,67
2023-01-15T14:11:20.504Z,67
2023-01-15T14:12:38.550Z,67
2023-01-15T14:13:54.511Z,67
2023-01-15T14:15:09.900Z,67
2023-01-15T14:16:24.750Z,66
2023-01-15T14:17:40.114Z,66
2023-01-15T14:18:57.401Z,67
2023-01-15T14:20:12.487Z,66
2023-01-15T14:21:27.947Z,67
2023-01-15T14:22:40.615Z,67
2023-01-15T14:23:53.391Z,67
2023-01-15T14:25:08.647Z,66
2023-01-15T14:26:21.794Z,66
2023-01-15T14:27:39.168Z,66
2023-01-15T14:28:54.469Z,67
2023-01-15T14:30:09.679Z,67
2023-01-15T14:31:20.378Z,67
2023-01-15T14:32:37.615Z,67
2023-01-15T14:33:54.936Z,66
2023-01-15T14:35:02.171Z,67
2023-01-15T14:36:09.136Z,67
2023-01-15T14:37:21.906Z,67
2023-01-15T14:38:34.123Z,67
2023-01-15T14:39:41.245Z,67
2023-01-15T14:40:54.120Z,67
2023-01-15T14:42:04.266Z,67
2023-01-15T14:43:19.421Z,67
2023-01-15T14:44:26.522Z,66
2023-01-15T14:45:33.685Z,67
2023-01-15T14:46:44.020Z,67
2023-01-15T14:47:51.100Z,67
2023-01-15T14:48:58.051Z,67
2023-01-15T14:50:05.362Z,67
2023-01-15T14:51:22.840Z,66
2023-01-15T14:52:33.154Z,67
2023-01-15T14:53:40.459Z,67
2023-01-15T14:54:48.011Z,66
2023-01-15T14:55:55.223Z,67
2023-01-15T14:57:05.210Z,67
2023-01-15T14:58:12.366Z,67
2023-01-15T14:59:27.917Z,67
2023-01-15T15:00:40.422Z,66
2023-01-15T15:01:48.008Z,66
2023-01-15T15:02:54.793Z,67
2023-01-15T15:04:01.906Z,67
2023-01-15T15:05:14.494Z,67
2023-01-15T15:06:21.560Z,66
2023-01-15T15:07:28.975Z,66
2023-01-15T15:08:38.711Z,67
2023-01-15T15:09:45.595Z,67
2023-01-15T15:10:57.763Z,67
2023-01-15T15:12:04.854Z,67
2023-01-15T15:13:22.274Z,66
2023-01-15T15:14:33.287Z,66
2023-01-15T15:15:41.377Z,66
2023-01-15T15:16:51.340Z,66
2023-01-15T15:17:58.626Z,66
2023-01-15T15:19:17.430Z,66
2023-01-15T15:20:29.463Z,66
2023-01-15T15:21:47.176Z,67
2023-01-15T15:22:54.327Z,67
2023-01-15T15:24:11.646Z,67
2023-01-15T15:25:26.426Z,67
2023-01-15T15:26:34.378Z,67
2023-01-15T15:27:41.823Z,67
2023-01-15T15:28:48.895Z,68
2023-01-15T15:29:58.486Z,68
2023-01-15T15:31:09.143Z,69
2023-01-15T15:32:17.274Z,69
2023-01-15T15:33:24.410Z,69
2023-01-15T15:34:36.559Z,68
2023-01-15T15:35:43.711Z,69
2023-01-15T15:36:50.838Z,69
2023-01-15T15:37:58.223Z,69
2023-01-15T15:39:06.490Z,69
2023-01-15T15:40:24.067Z,69
2023-01-15T15:41:36.142Z,69
2023-01-15T15:42:48.387Z,69
2023-01-15T15:44:08.789Z,70
2023-01-15T15:45:20.982Z,70
2023-01-15T15:46:33.143Z,70
2023-01-15T15:47:45.503Z,70
2023-01-15T15:49:01.150Z,69
2023-01-15T15:50:08.291Z,69
2023-01-15T15:51:25.765Z,69
2023-01-15T15:52:38.801Z,69
2023-01-15T15:53:45.834Z,70
2023-01-15T15:54:53.227Z,70
2023-01-15T15:56:05.932Z,70
2023-01-15T15:57:13.357Z,70
2023-01-15T15:58:20.502Z,70
2023-01-15T15:59:37.919Z,70
2023-01-15T16:00:52.648Z,70
2023-01-15T16:01:59.906Z,71
2023-01-15T16:03:11.905Z,71
2023-01-15T16:04:26.946Z,71
2023-01-15T16:05:34.258Z,72
2023-01-15T16:06:41.391Z,71
2023-01-15T16:07:48.689Z,72
2023-01-15T16:08:55.675Z,71
2023-01-15T16:10:02.849Z,72
2023-01-15T16:11:20.137Z,72
2023-01-15T16:12:27.253Z,73
2023-01-15T16:13:34.245Z,73
2023-01-15T16:14:47.115Z,73
2023-01-15T16:15:56.074Z,75
2023-01-15T16:17:01.612Z,75
2023-01-15T16:18:08.955Z,76
2023-01-15T16:19:16.037Z,76
2023-01-15T16:20:23.176Z,76
2023-01-15T16:21:30.466Z,78
2023-01-15T16:22:40.653Z,79
2023-01-15T16:23:47.943Z,79
2023-01-15T16:25:00.285Z,80
2023-01-15T16:26:07.651Z,80